sensor_id;sensor_type;location;lat;lon;timestamp;P1;durP1;ratioP1;P2;durP2;ratioP2
49854;SDS011;35752;52.164;21.244;2022-09-09T00:23:39;12.88;;;7.53;;
49854;SDS011;35752;52.164;21.244;2022-09-09T00:26:14;11.52;;;6.07;;
49854;SDS011;35752;52.164;21.244;2022-09-09T00:29:03;12.38;;;7.22;;
49854;SDS011;35752;52.164;21.244;2022-09-09T00:31:35;11.80;;;6.45;;
49854;SDS011;35752;52.164;21.244;2022-09-09T00:36:56;11.18;;;6.30;;
49854;SDS011;35752;52.164;21.244;2022-09-09T00:39:39;16.45;;;7.15;;
49854;SDS011;35752;52.164;21.244;2022-09-09T00:42:31;13.35;;;7.15;;
49854;SDS011;35752;52.164;21.244;2022-09-09T00:45:19;11.27;;;7.00;;
49854;SDS011;35752;52.164;21.244;2022-09-09T00:48:08;11.30;;;7.00;;
49854;SDS011;35752;52.164;21.244;2022-09-09T00:58:16;12.05;;;7.03;;
49854;SDS011;35752;52.164;21.244;2022-09-09T01:00:43;12.45;;;7.43;;
49854;SDS011;35752;52.164;21.244;2022-09-09T01:06:20;12.75;;;6.45;;
49854;SDS011;35752;52.164;21.244;2022-09-09T01:14:44;13.30;;;7.53;;
49854;SDS011;35752;52.164;21.244;2022-09-09T01:28:28;13.02;;;7.38;;
49854;SDS011;35752;52.164;21.244;2022-09-09T01:30:55;11.27;;;7.20;;
49854;SDS011;35752;52.164;21.244;2022-09-09T01:33:22;19.45;;;7.88;;
49854;SDS011;35752;52.164;21.244;2022-09-09T01:35:55;14.07;;;8.07;;
49854;SDS011;35752;52.164;21.244;2022-09-09T01:38:23;13.60;;;8.05;;
49854;SDS011;35752;52.164;21.244;2022-09-09T01:40:50;14.30;;;7.88;;
49854;SDS011;35752;52.164;21.244;2022-09-09T01:43:18;13.60;;;7.80;;
49854;SDS011;35752;52.164;21.244;2022-09-09T01:45:47;13.93;;;9.02;;
49854;SDS011;35752;52.164;21.244;2022-09-09T01:48:16;17.90;;;8.55;;
49854;SDS011;35752;52.164;21.244;2022-09-09T01:50:43;13.80;;;7.78;;
49854;SDS011;35752;52.164;21.244;2022-09-09T01:53:09;12.02;;;7.75;;
49854;SDS011;35752;52.164;21.244;2022-09-09T01:55:37;15.02;;;8.50;;
49854;SDS011;35752;52.164;21.244;2022-09-09T02:03:29;12.65;;;7.75;;
49854;SDS011;35752;52.164;21.244;2022-09-09T02:09:04;13.20;;;8.52;;
49854;SDS011;35752;52.164;21.244;2022-09-09T02:11:38;14.38;;;7.85;;
49854;SDS011;35752;52.164;21.244;2022-09-09T02:14:08;12.85;;;8.18;;
49854;SDS011;35752;52.164;21.244;2022-09-09T02:16:38;15.50;;;8.85;;
49854;SDS011;35752;52.164;21.244;2022-09-09T02:19:17;13.77;;;8.90;;
49854;SDS011;35752;52.164;21.244;2022-09-09T02:21:52;15.52;;;8.40;;
49854;SDS011;35752;52.164;21.244;2022-09-09T02:24:20;14.50;;;8.82;;
49854;SDS011;35752;52.164;21.244;2022-09-09T02:26:47;18.42;;;8.82;;
49854;SDS011;35752;52.164;21.244;2022-09-09T02:29:28;16.00;;;9.57;;
49854;SDS011;35752;52.164;21.244;2022-09-09T02:32:09;13.85;;;8.45;;
49854;SDS011;35752;52.164;21.244;2022-09-09T02:34:47;15.55;;;9.25;;
49854;SDS011;35752;52.164;21.244;2022-09-09T02:37:19;15.70;;;10.43;;
49854;SDS011;35752;52.164;21.244;2022-09-09T02:39:50;17.92;;;9.70;;
49854;SDS011;35752;52.164;21.244;2022-09-09T02:42:16;15.85;;;9.45;;
49854;SDS011;35752;52.164;21.244;2022-09-09T02:44:41;15.50;;;10.05;;
49854;SDS011;35752;52.164;21.244;2022-09-09T02:49:57;13.48;;;9.27;;
49854;SDS011;35752;52.164;21.244;2022-09-09T02:58:25;14.85;;;9.43;;
49854;SDS011;35752;52.164;21.244;2022-09-09T03:00:51;14.18;;;10.15;;
49854;SDS011;35752;52.164;21.244;2022-09-09T03:03:18;14.45;;;9.93;;
49854;SDS011;35752;52.164;21.244;2022-09-09T03:05:45;13.48;;;8.90;;
49854;SDS011;35752;52.164;21.244;2022-09-09T03:08:11;16.50;;;9.85;;
49854;SDS011;35752;52.164;21.244;2022-09-09T03:10:38;14.30;;;8.73;;
49854;SDS011;35752;52.164;21.244;2022-09-09T03:13:04;13.98;;;9.35;;
49854;SDS011;35752;52.164;21.244;2022-09-09T03:15:31;11.75;;;8.40;;
49854;SDS011;35752;52.164;21.244;2022-09-09T03:17:58;13.98;;;9.43;;
49854;SDS011;35752;52.164;21.244;2022-09-09T03:20:24;13.93;;;8.85;;
49854;SDS011;35752;52.164;21.244;2022-09-09T03:22:52;12.57;;;8.98;;
49854;SDS011;35752;52.164;21.244;2022-09-09T03:25:24;12.70;;;8.23;;
49854;SDS011;35752;52.164;21.244;2022-09-09T03:27:50;13.93;;;9.25;;
49854;SDS011;35752;52.164;21.244;2022-09-09T03:30:19;12.98;;;8.65;;
49854;SDS011;35752;52.164;21.244;2022-09-09T03:32:48;13.93;;;8.48;;
49854;SDS011;35752;52.164;21.244;2022-09-09T03:35:17;17.35;;;8.80;;
49854;SDS011;35752;52.164;21.244;2022-09-09T03:37:43;11.70;;;8.27;;
49854;SDS011;35752;52.164;21.244;2022-09-09T03:40:12;13.52;;;7.70;;
49854;SDS011;35752;52.164;21.244;2022-09-09T03:42:41;12.77;;;6.85;;
49854;SDS011;35752;52.164;21.244;2022-09-09T03:45:08;11.10;;;8.00;;
49854;SDS011;35752;52.164;21.244;2022-09-09T03:47:35;10.05;;;7.45;;
49854;SDS011;35752;52.164;21.244;2022-09-09T03:50:02;9.98;;;6.60;;
49854;SDS011;35752;52.164;21.244;2022-09-09T03:52:29;9.40;;;6.85;;
49854;SDS011;35752;52.164;21.244;2022-09-09T03:54:58;7.93;;;5.97;;
49854;SDS011;35752;52.164;21.244;2022-09-09T03:57:24;10.63;;;7.03;;
49854;SDS011;35752;52.164;21.244;2022-09-09T03:59:50;8.55;;;6.13;;
49854;SDS011;35752;52.164;21.244;2022-09-09T04:02:18;7.28;;;5.40;;
49854;SDS011;35752;52.164;21.244;2022-09-09T04:04:45;7.13;;;5.57;;
49854;SDS011;35752;52.164;21.244;2022-09-09T04:07:11;8.40;;;6.20;;
49854;SDS011;35752;52.164;21.244;2022-09-09T04:09:37;7.78;;;5.63;;
49854;SDS011;35752;52.164;21.244;2022-09-09T04:12:03;10.15;;;5.88;;
49854;SDS011;35752;52.164;21.244;2022-09-09T04:14:29;11.00;;;5.38;;
49854;SDS011;35752;52.164;21.244;2022-09-09T04:16:58;8.05;;;5.80;;
49854;SDS011;35752;52.164;21.244;2022-09-09T04:19:24;8.13;;;5.90;;
49854;SDS011;35752;52.164;21.244;2022-09-09T04:21:50;9.60;;;6.05;;
49854;SDS011;35752;52.164;21.244;2022-09-09T04:24:16;7.68;;;5.30;;
49854;SDS011;35752;52.164;21.244;2022-09-09T04:26:42;9.07;;;5.05;;
49854;SDS011;35752;52.164;21.244;2022-09-09T04:29:21;6.18;;;5.30;;
49854;SDS011;35752;52.164;21.244;2022-09-09T04:31:46;7.60;;;5.10;;
49854;SDS011;35752;52.164;21.244;2022-09-09T04:34:12;6.60;;;5.32;;
49854;SDS011;35752;52.164;21.244;2022-09-09T04:36:38;6.03;;;5.20;;
49854;SDS011;35752;52.164;21.244;2022-09-09T04:39:05;6.80;;;5.00;;
49854;SDS011;35752;52.164;21.244;2022-09-09T04:41:31;7.03;;;5.20;;
49854;SDS011;35752;52.164;21.244;2022-09-09T04:43:57;5.82;;;4.18;;
49854;SDS011;35752;52.164;21.244;2022-09-09T04:46:31;6.53;;;4.78;;
49854;SDS011;35752;52.164;21.244;2022-09-09T04:48:59;8.57;;;5.72;;
49854;SDS011;35752;52.164;21.244;2022-09-09T04:51:25;7.07;;;4.25;;
49854;SDS011;35752;52.164;21.244;2022-09-09T04:53:50;6.47;;;4.75;;
49854;SDS011;35752;52.164;21.244;2022-09-09T04:56:18;6.93;;;4.47;;
49854;SDS011;35752;52.164;21.244;2022-09-09T04:58:45;5.55;;;4.20;;
49854;SDS011;35752;52.164;21.244;2022-09-09T05:01:11;5.07;;;4.57;;
49854;SDS011;35752;52.164;21.244;2022-09-09T05:03:49;5.60;;;4.15;;
49854;SDS011;35752;52.164;21.244;2022-09-09T05:06:21;6.10;;;4.25;;
49854;SDS011;35752;52.164;21.244;2022-09-09T05:08:47;6.18;;;4.35;;
49854;SDS011;35752;52.164;21.244;2022-09-09T05:13:43;6.47;;;4.32;;
49854;SDS011;35752;52.164;21.244;2022-09-09T05:16:09;5.35;;;4.05;;
49854;SDS011;35752;52.164;21.244;2022-09-09T05:19:04;6.22;;;4.15;;
49854;SDS011;35752;52.164;21.244;2022-09-09T05:21:36;5.20;;;4.15;;
49854;SDS011;35752;52.164;21.244;2022-09-09T05:24:02;6.40;;;4.28;;
49854;SDS011;35752;52.164;21.244;2022-09-09T05:26:31;6.03;;;4.00;;
49854;SDS011;35752;52.164;21.244;2022-09-09T05:29:00;5.03;;;4.22;;
49854;SDS011;35752;52.164;21.244;2022-09-09T05:31:26;5.72;;;4.13;;
49854;SDS011;35752;52.164;21.244;2022-09-09T05:34:03;6.22;;;4.47;;
49854;SDS011;35752;52.164;21.244;2022-09-09T05:36:32;7.47;;;4.00;;
49854;SDS011;35752;52.164;21.244;2022-09-09T05:39:00;5.15;;;4.18;;
49854;SDS011;35752;52.164;21.244;2022-09-09T05:41:29;5.90;;;5.00;;
49854;SDS011;35752;52.164;21.244;2022-09-09T05:43:58;6.67;;;4.37;;
49854;SDS011;35752;52.164;21.244;2022-09-09T05:46:28;8.05;;;4.90;;
49854;SDS011;35752;52.164;21.244;2022-09-09T05:48:55;6.55;;;5.00;;
49854;SDS011;35752;52.164;21.244;2022-09-09T05:51:21;6.95;;;5.05;;
49854;SDS011;35752;52.164;21.244;2022-09-09T05:53:50;7.07;;;4.63;;
49854;SDS011;35752;52.164;21.244;2022-09-09T05:56:20;7.25;;;5.28;;
49854;SDS011;35752;52.164;21.244;2022-09-09T05:58:48;6.57;;;4.60;;
49854;SDS011;35752;52.164;21.244;2022-09-09T06:01:16;7.72;;;5.63;;
49854;SDS011;35752;52.164;21.244;2022-09-09T06:03:45;8.27;;;5.60;;
49854;SDS011;35752;52.164;21.244;2022-09-09T06:06:17;6.18;;;5.50;;
49854;SDS011;35752;52.164;21.244;2022-09-09T06:08:52;6.85;;;5.50;;
49854;SDS011;35752;52.164;21.244;2022-09-09T06:11:23;7.15;;;5.53;;
49854;SDS011;35752;52.164;21.244;2022-09-09T06:13:51;8.70;;;6.07;;
49854;SDS011;35752;52.164;21.244;2022-09-09T06:16:19;9.23;;;6.85;;
49854;SDS011;35752;52.164;21.244;2022-09-09T06:21:16;7.82;;;5.70;;
49854;SDS011;35752;52.164;21.244;2022-09-09T06:23:52;7.40;;;5.60;;
49854;SDS011;35752;52.164;21.244;2022-09-09T06:26:19;7.90;;;6.35;;
49854;SDS011;35752;52.164;21.244;2022-09-09T06:28:46;9.18;;;5.78;;
49854;SDS011;35752;52.164;21.244;2022-09-09T06:31:14;9.27;;;6.18;;
49854;SDS011;35752;52.164;21.244;2022-09-09T06:33:51;10.02;;;7.55;;
49854;SDS011;35752;52.164;21.244;2022-09-09T06:38:44;7.50;;;6.65;;
49854;SDS011;35752;52.164;21.244;2022-09-09T06:41:11;8.95;;;7.43;;
49854;SDS011;35752;52.164;21.244;2022-09-09T06:43:38;12.77;;;7.93;;
49854;SDS011;35752;52.164;21.244;2022-09-09T06:46:06;8.80;;;6.90;;
49854;SDS011;35752;52.164;21.244;2022-09-09T06:49:01;12.05;;;8.05;;
49854;SDS011;35752;52.164;21.244;2022-09-09T06:51:29;10.73;;;7.30;;
49854;SDS011;35752;52.164;21.244;2022-09-09T06:53:57;8.20;;;7.32;;
49854;SDS011;35752;52.164;21.244;2022-09-09T06:56:34;14.18;;;7.50;;
49854;SDS011;35752;52.164;21.244;2022-09-09T06:59:07;10.85;;;7.88;;
49854;SDS011;35752;52.164;21.244;2022-09-09T07:01:35;9.27;;;6.90;;
49854;SDS011;35752;52.164;21.244;2022-09-09T07:04:16;10.35;;;7.85;;
49854;SDS011;35752;52.164;21.244;2022-09-09T07:06:43;10.93;;;7.63;;
49854;SDS011;35752;52.164;21.244;2022-09-09T07:09:11;11.73;;;7.72;;
49854;SDS011;35752;52.164;21.244;2022-09-09T07:11:39;11.32;;;8.30;;
49854;SDS011;35752;52.164;21.244;2022-09-09T07:14:10;11.40;;;7.45;;
49854;SDS011;35752;52.164;21.244;2022-09-09T07:16:39;11.48;;;7.78;;
49854;SDS011;35752;52.164;21.244;2022-09-09T07:19:06;10.10;;;8.07;;
49854;SDS011;35752;52.164;21.244;2022-09-09T07:21:32;9.77;;;7.93;;
49854;SDS011;35752;52.164;21.244;2022-09-09T07:24:01;9.07;;;7.65;;
49854;SDS011;35752;52.164;21.244;2022-09-09T07:26:28;10.10;;;6.57;;
49854;SDS011;35752;52.164;21.244;2022-09-09T07:28:55;12.27;;;8.65;;
49854;SDS011;35752;52.164;21.244;2022-09-09T07:31:29;10.55;;;7.45;;
49854;SDS011;35752;52.164;21.244;2022-09-09T07:34:00;9.65;;;7.50;;
49854;SDS011;35752;52.164;21.244;2022-09-09T07:36:27;9.98;;;8.10;;
49854;SDS011;35752;52.164;21.244;2022-09-09T07:39:01;10.90;;;7.38;;
49854;SDS011;35752;52.164;21.244;2022-09-09T07:41:40;9.07;;;6.85;;
49854;SDS011;35752;52.164;21.244;2022-09-09T07:44:12;9.50;;;7.57;;
49854;SDS011;35752;52.164;21.244;2022-09-09T07:46:42;14.30;;;7.47;;
49854;SDS011;35752;52.164;21.244;2022-09-09T07:49:09;10.48;;;6.90;;
49854;SDS011;35752;52.164;21.244;2022-09-09T07:51:44;9.77;;;7.88;;
49854;SDS011;35752;52.164;21.244;2022-09-09T07:54:15;9.45;;;7.53;;
49854;SDS011;35752;52.164;21.244;2022-09-09T07:56:48;11.30;;;8.02;;
49854;SDS011;35752;52.164;21.244;2022-09-09T07:59:15;15.02;;;8.30;;
49854;SDS011;35752;52.164;21.244;2022-09-09T08:01:42;9.13;;;6.97;;
49854;SDS011;35752;52.164;21.244;2022-09-09T08:04:11;11.63;;;8.50;;
49854;SDS011;35752;52.164;21.244;2022-09-09T08:06:52;11.73;;;7.68;;
49854;SDS011;35752;52.164;21.244;2022-09-09T08:09:21;10.40;;;8.20;;
49854;SDS011;35752;52.164;21.244;2022-09-09T08:11:50;9.93;;;7.05;;
49854;SDS011;35752;52.164;21.244;2022-09-09T08:14:16;10.70;;;8.25;;
49854;SDS011;35752;52.164;21.244;2022-09-09T08:16:43;10.55;;;7.45;;
49854;SDS011;35752;52.164;21.244;2022-09-09T08:19:10;9.95;;;8.23;;
49854;SDS011;35752;52.164;21.244;2022-09-09T08:21:39;14.10;;;7.80;;
49854;SDS011;35752;52.164;21.244;2022-09-09T08:24:06;12.85;;;7.75;;
49854;SDS011;35752;52.164;21.244;2022-09-09T08:26:44;10.23;;;7.53;;
49854;SDS011;35752;52.164;21.244;2022-09-09T08:29:14;10.77;;;7.75;;
49854;SDS011;35752;52.164;21.244;2022-09-09T08:31:53;13.18;;;8.77;;
49854;SDS011;35752;52.164;21.244;2022-09-09T08:34:29;11.02;;;8.63;;
49854;SDS011;35752;52.164;21.244;2022-09-09T08:37:06;10.43;;;8.43;;
49854;SDS011;35752;52.164;21.244;2022-09-09T08:39:32;12.38;;;8.30;;
49854;SDS011;35752;52.164;21.244;2022-09-09T08:47:42;10.60;;;7.90;;
49854;SDS011;35752;52.164;21.244;2022-09-09T08:56:20;12.63;;;9.65;;
49854;SDS011;35752;52.164;21.244;2022-09-09T08:58:55;14.30;;;9.32;;
49854;SDS011;35752;52.164;21.244;2022-09-09T09:13:30;13.88;;;9.15;;
49854;SDS011;35752;52.164;21.244;2022-09-09T09:17:31;16.83;;;10.88;;
49854;SDS011;35752;52.164;21.244;2022-09-09T09:19:44;14.88;;;11.75;;
49854;SDS011;35752;52.164;21.244;2022-09-09T09:25:22;15.88;;;11.13;;
49854;SDS011;35752;52.164;21.244;2022-09-09T09:31:20;15.65;;;11.32;;
49854;SDS011;35752;52.164;21.244;2022-09-09T09:33:52;16.42;;;11.75;;
49854;SDS011;35752;52.164;21.244;2022-09-09T09:39:27;22.38;;;13.68;;
49854;SDS011;35752;52.164;21.244;2022-09-09T09:41:54;15.88;;;12.65;;
49854;SDS011;35752;52.164;21.244;2022-09-09T09:44:27;15.88;;;11.77;;
49854;SDS011;35752;52.164;21.244;2022-09-09T09:47:31;17.17;;;11.55;;
49854;SDS011;35752;52.164;21.244;2022-09-09T09:50:03;15.98;;;11.93;;
49854;SDS011;35752;52.164;21.244;2022-09-09T09:55:50;18.38;;;13.32;;
49854;SDS011;35752;52.164;21.244;2022-09-09T09:58:49;18.77;;;12.32;;
49854;SDS011;35752;52.164;21.244;2022-09-09T10:04:18;19.92;;;12.18;;
49854;SDS011;35752;52.164;21.244;2022-09-09T10:06:48;19.25;;;13.30;;
49854;SDS011;35752;52.164;21.244;2022-09-09T10:09:33;24.08;;;12.48;;
49854;SDS011;35752;52.164;21.244;2022-09-09T10:17:41;17.90;;;13.45;;
